sensor_id;sensor_type;location;lat;lon;timestamp;P1;durP1;ratioP1;P2;durP2;ratioP2
34521;SDS011;25561;48.888;8.736;2022-12-08T06:50:26;18.33;;;8.52;;
34521;SDS011;25561;48.888;8.736;2022-12-08T06:53:28;19.77;;;8.20;;
34521;SDS011;25561;48.888;8.736;2022-12-08T06:56:30;21.33;;;8.52;;
34521;SDS011;25561;48.888;8.736;2022-12-08T06:59:32;18.38;;;8.10;;
34521;SDS011;25561;48.888;8.736;2022-12-08T07:02:34;18.48;;;8.48;;
34521;SDS011;25561;48.888;8.736;2022-12-08T07:05:37;23.50;;;9.95;;
34521;SDS011;25561;48.888;8.736;2022-12-08T07:08:39;18.40;;;7.97;;
34521;SDS011;25561;48.888;8.736;2022-12-08T07:11:43;17.67;;;8.63;;
34521;SDS011;25561;48.888;8.736;2022-12-08T07:14:45;15.23;;;7.97;;
34521;SDS011;25561;48.888;8.736;2022-12-08T07:17:47;17.67;;;7.65;;
34521;SDS011;25561;48.888;8.736;2022-12-08T07:21:01;19.02;;;7.68;;
34521;SDS011;25561;48.888;8.736;2022-12-08T07:24:06;16.20;;;7.57;;
34521;SDS011;25561;48.888;8.736;2022-12-08T07:27:08;16.65;;;7.88;;
34521;SDS011;25561;48.888;8.736;2022-12-08T07:30:11;13.95;;;8.10;;
34521;SDS011;25561;48.888;8.736;2022-12-08T07:33:14;14.75;;;7.43;;
34521;SDS011;25561;48.888;8.736;2022-12-08T07:36:17;14.50;;;6.97;;
34521;SDS011;25561;48.888;8.736;2022-12-08T07:39:20;15.85;;;8.02;;
34521;SDS011;25561;48.888;8.736;2022-12-08T07:42:22;20.98;;;8.13;;
34521;SDS011;25561;48.888;8.736;2022-12-08T07:45:24;15.27;;;8.05;;
34521;SDS011;25561;48.888;8.736;2022-12-08T07:48:32;17.55;;;8.70;;
34521;SDS011;25561;48.888;8.736;2022-12-08T07:51:34;21.30;;;8.90;;
34521;SDS011;25561;48.888;8.736;2022-12-08T07:54:36;13.32;;;7.63;;
34521;SDS011;25561;48.888;8.736;2022-12-08T07:57:39;13.30;;;6.38;;
34521;SDS011;25561;48.888;8.736;2022-12-08T08:00:42;13.95;;;7.05;;
34521;SDS011;25561;48.888;8.736;2022-12-08T08:03:44;10.32;;;6.15;;
34521;SDS011;25561;48.888;8.736;2022-12-08T08:06:46;14.10;;;5.55;;
34521;SDS011;25561;48.888;8.736;2022-12-08T08:09:49;10.05;;;5.50;;
34521;SDS011;25561;48.888;8.736;2022-12-08T08:12:51;18.27;;;5.20;;
34521;SDS011;25561;48.888;8.736;2022-12-08T08:15:54;11.43;;;5.65;;
34521;SDS011;25561;48.888;8.736;2022-12-08T08:19:03;14.25;;;4.57;;
34521;SDS011;25561;48.888;8.736;2022-12-08T08:22:05;10.90;;;4.65;;
34521;SDS011;25561;48.888;8.736;2022-12-08T08:25:07;9.63;;;4.70;;
34521;SDS011;25561;48.888;8.736;2022-12-08T08:28:09;12.68;;;5.35;;
34521;SDS011;25561;48.888;8.736;2022-12-08T08:31:11;12.48;;;5.07;;
34521;SDS011;25561;48.888;8.736;2022-12-08T08:34:13;13.32;;;6.50;;
34521;SDS011;25561;48.888;8.736;2022-12-08T08:37:16;17.58;;;9.02;;
34521;SDS011;25561;48.888;8.736;2022-12-08T08:40:17;15.10;;;8.15;;
34521;SDS011;25561;48.888;8.736;2022-12-08T08:43:19;17.75;;;8.27;;
34521;SDS011;25561;48.888;8.736;2022-12-08T08:46:39;10.38;;;5.38;;
34521;SDS011;25561;48.888;8.736;2022-12-08T08:49:42;17.38;;;6.78;;
34521;SDS011;25561;48.888;8.736;2022-12-08T08:52:43;8.40;;;5.15;;
34521;SDS011;25561;48.888;8.736;2022-12-08T08:55:46;8.02;;;5.13;;
34521;SDS011;25561;48.888;8.736;2022-12-08T08:58:49;10.20;;;5.50;;
34521;SDS011;25561;48.888;8.736;2022-12-08T09:01:52;11.50;;;5.80;;
34521;SDS011;25561;48.888;8.736;2022-12-08T09:04:56;9.38;;;4.95;;
34521;SDS011;25561;48.888;8.736;2022-12-08T09:07:59;8.52;;;5.15;;
34521;SDS011;25561;48.888;8.736;2022-12-08T09:11:01;12.02;;;5.65;;
34521;SDS011;25561;48.888;8.736;2022-12-08T09:14:04;17.25;;;6.10;;
34521;SDS011;25561;48.888;8.736;2022-12-08T09:17:07;11.00;;;6.13;;
34521;SDS011;25561;48.888;8.736;2022-12-08T09:20:09;11.93;;;6.72;;
34521;SDS011;25561;48.888;8.736;2022-12-08T09:23:12;13.10;;;6.32;;
34521;SDS011;25561;48.888;8.736;2022-12-08T09:26:18;10.02;;;5.55;;
34521;SDS011;25561;48.888;8.736;2022-12-08T09:29:23;10.13;;;5.95;;
34521;SDS011;25561;48.888;8.736;2022-12-08T09:32:28;9.82;;;5.57;;
34521;SDS011;25561;48.888;8.736;2022-12-08T09:35:31;10.27;;;5.43;;
34521;SDS011;25561;48.888;8.736;2022-12-08T09:38:34;8.90;;;4.95;;
34521;SDS011;25561;48.888;8.736;2022-12-08T09:41:44;8.73;;;5.18;;
34521;SDS011;25561;48.888;8.736;2022-12-08T09:45:02;8.45;;;5.18;;
34521;SDS011;25561;48.888;8.736;2022-12-08T09:48:11;8.85;;;5.03;;
34521;SDS011;25561;48.888;8.736;2022-12-08T09:51:17;12.80;;;5.40;;
34521;SDS011;25561;48.888;8.736;2022-12-08T09:54:22;9.57;;;5.22;;
34521;SDS011;25561;48.888;8.736;2022-12-08T09:57:30;8.88;;;4.85;;
34521;SDS011;25561;48.888;8.736;2022-12-08T10:00:32;8.65;;;5.78;;
34521;SDS011;25561;48.888;8.736;2022-12-08T10:03:35;9.30;;;4.97;;
34521;SDS011;25561;48.888;8.736;2022-12-08T10:06:38;9.65;;;5.97;;
34521;SDS011;25561;48.888;8.736;2022-12-08T10:09:51;11.80;;;5.43;;
34521;SDS011;25561;48.888;8.736;2022-12-08T10:13:24;5.50;;;3.30;;
34521;SDS011;25561;48.888;8.736;2022-12-08T10:16:37;5.15;;;3.13;;
34521;SDS011;25561;48.888;8.736;2022-12-08T10:19:42;8.88;;;3.90;;
34521;SDS011;25561;48.888;8.736;2022-12-08T10:22:54;7.88;;;3.17;;
34521;SDS011;25561;48.888;8.736;2022-12-08T10:26:13;8.68;;;3.65;;
34521;SDS011;25561;48.888;8.736;2022-12-08T10:29:17;7.93;;;3.38;;
34521;SDS011;25561;48.888;8.736;2022-12-08T10:32:20;6.07;;;3.55;;
34521;SDS011;25561;48.888;8.736;2022-12-08T10:35:24;6.15;;;3.33;;
34521;SDS011;25561;48.888;8.736;2022-12-08T10:38:51;7.10;;;3.72;;
34521;SDS011;25561;48.888;8.736;2022-12-08T10:41:58;5.85;;;3.10;;
34521;SDS011;25561;48.888;8.736;2022-12-08T10:48:28;12.95;;;4.68;;
34521;SDS011;25561;48.888;8.736;2022-12-08T10:54:34;7.13;;;3.63;;
34521;SDS011;25561;48.888;8.736;2022-12-08T10:57:38;9.17;;;3.87;;
34521;SDS011;25561;48.888;8.736;2022-12-08T11:00:40;8.10;;;4.30;;
34521;SDS011;25561;48.888;8.736;2022-12-08T11:03:58;10.23;;;4.90;;
34521;SDS011;25561;48.888;8.736;2022-12-08T11:07:03;14.20;;;4.68;;
34521;SDS011;25561;48.888;8.736;2022-12-08T11:10:13;9.63;;;4.32;;
34521;SDS011;25561;48.888;8.736;2022-12-08T11:13:21;8.35;;;4.75;;
34521;SDS011;25561;48.888;8.736;2022-12-08T11:16:26;9.93;;;4.53;;
34521;SDS011;25561;48.888;8.736;2022-12-08T11:19:29;8.65;;;3.95;;
34521;SDS011;25561;48.888;8.736;2022-12-08T11:22:34;9.95;;;4.30;;
34521;SDS011;25561;48.888;8.736;2022-12-08T11:25:40;8.15;;;4.15;;
34521;SDS011;25561;48.888;8.736;2022-12-08T11:28:42;9.82;;;4.10;;
34521;SDS011;25561;48.888;8.736;2022-12-08T11:31:47;8.35;;;4.22;;
34521;SDS011;25561;48.888;8.736;2022-12-08T11:34:56;7.53;;;3.60;;
34521;SDS011;25561;48.888;8.736;2022-12-08T11:38:05;7.60;;;4.32;;
34521;SDS011;25561;48.888;8.736;2022-12-08T11:41:23;7.78;;;4.00;;
34521;SDS011;25561;48.888;8.736;2022-12-08T11:44:36;7.97;;;4.53;;
34521;SDS011;25561;48.888;8.736;2022-12-08T11:47:44;6.93;;;3.95;;
34521;SDS011;25561;48.888;8.736;2022-12-08T11:50:59;7.75;;;4.63;;
34521;SDS011;25561;48.888;8.736;2022-12-08T11:57:14;7.75;;;4.30;;
34521;SDS011;25561;48.888;8.736;2022-12-08T12:00:17;11.43;;;5.13;;
34521;SDS011;25561;48.888;8.736;2022-12-08T12:03:24;9.93;;;5.40;;
34521;SDS011;25561;48.888;8.736;2022-12-08T12:07:30;8.05;;;4.40;;
34521;SDS011;25561;48.888;8.736;2022-12-08T12:10:30;8.73;;;4.35;;
34521;SDS011;25561;48.888;8.736;2022-12-08T12:13:48;10.18;;;4.20;;
34521;SDS011;25561;48.888;8.736;2022-12-08T12:17:02;12.10;;;4.60;;
34521;SDS011;25561;48.888;8.736;2022-12-08T12:20:11;6.82;;;3.67;;
34521;SDS011;25561;48.888;8.736;2022-12-08T12:23:22;7.53;;;3.92;;
34521;SDS011;25561;48.888;8.736;2022-12-08T12:27:39;9.60;;;3.95;;
34521;SDS011;25561;48.888;8.736;2022-12-08T12:30:08;9.77;;;5.35;;
34521;SDS011;25561;48.888;8.736;2022-12-08T12:33:21;16.30;;;5.15;;
34521;SDS011;25561;48.888;8.736;2022-12-08T12:36:24;7.78;;;3.70;;
34521;SDS011;25561;48.888;8.736;2022-12-08T12:39:27;9.60;;;4.78;;
34521;SDS011;25561;48.888;8.736;2022-12-08T12:42:35;10.00;;;5.03;;
34521;SDS011;25561;48.888;8.736;2022-12-08T12:45:41;13.07;;;4.38;;
34521;SDS011;25561;48.888;8.736;2022-12-08T12:48:45;9.57;;;4.55;;
34521;SDS011;25561;48.888;8.736;2022-12-08T12:51:56;7.15;;;3.97;;
34521;SDS011;25561;48.888;8.736;2022-12-08T12:58:02;6.97;;;3.58;;
34521;SDS011;25561;48.888;8.736;2022-12-08T13:04:32;13.90;;;3.78;;
34521;SDS011;25561;48.888;8.736;2022-12-08T13:07:41;6.10;;;3.78;;
34521;SDS011;25561;48.888;8.736;2022-12-08T13:10:58;7.85;;;4.05;;
34521;SDS011;25561;48.888;8.736;2022-12-08T13:14:03;8.63;;;4.20;;
34521;SDS011;25561;48.888;8.736;2022-12-08T13:17:06;6.72;;;4.18;;
34521;SDS011;25561;48.888;8.736;2022-12-08T13:20:22;7.82;;;4.32;;
34521;SDS011;25561;48.888;8.736;2022-12-08T13:23:27;15.48;;;5.65;;
34521;SDS011;25561;48.888;8.736;2022-12-08T13:26:30;11.00;;;5.93;;
34521;SDS011;25561;48.888;8.736;2022-12-08T13:29:34;8.27;;;5.03;;
34521;SDS011;25561;48.888;8.736;2022-12-08T13:32:54;8.07;;;5.28;;
34521;SDS011;25561;48.888;8.736;2022-12-08T13:36:24;11.65;;;5.32;;
34521;SDS011;25561;48.888;8.736;2022-12-08T13:39:41;9.05;;;5.60;;
34521;SDS011;25561;48.888;8.736;2022-12-08T13:46:11;10.82;;;5.80;;
34521;SDS011;25561;48.888;8.736;2022-12-08T13:49:36;9.32;;;5.13;;
34521;SDS011;25561;48.888;8.736;2022-12-08T13:53:10;8.98;;;4.93;;
34521;SDS011;25561;48.888;8.736;2022-12-08T13:56:44;13.90;;;6.18;;
34521;SDS011;25561;48.888;8.736;2022-12-08T14:00:13;15.68;;;7.47;;
34521;SDS011;25561;48.888;8.736;2022-12-08T14:03:17;23.27;;;7.13;;
34521;SDS011;25561;48.888;8.736;2022-12-08T14:06:25;14.18;;;6.72;;
34521;SDS011;25561;48.888;8.736;2022-12-08T14:09:32;16.73;;;7.40;;
34521;SDS011;25561;48.888;8.736;2022-12-08T14:12:36;12.98;;;6.82;;
34521;SDS011;25561;48.888;8.736;2022-12-08T14:15:39;12.05;;;6.65;;
34521;SDS011;25561;48.888;8.736;2022-12-08T14:18:41;12.95;;;6.90;;
34521;SDS011;25561;48.888;8.736;2022-12-08T14:21:47;11.63;;;6.28;;
34521;SDS011;25561;48.888;8.736;2022-12-08T14:24:54;11.65;;;6.38;;
34521;SDS011;25561;48.888;8.736;2022-12-08T14:27:58;12.25;;;6.07;;
34521;SDS011;25561;48.888;8.736;2022-12-08T14:31:01;10.18;;;6.30;;
34521;SDS011;25561;48.888;8.736;2022-12-08T14:34:04;12.77;;;6.57;;
34521;SDS011;25561;48.888;8.736;2022-12-08T14:37:09;12.70;;;6.88;;
34521;SDS011;25561;48.888;8.736;2022-12-08T14:43:35;16.52;;;7.38;;
34521;SDS011;25561;48.888;8.736;2022-12-08T14:46:37;19.60;;;8.13;;
34521;SDS011;25561;48.888;8.736;2022-12-08T14:49:40;21.15;;;8.93;;
34521;SDS011;25561;48.888;8.736;2022-12-08T14:52:42;17.42;;;7.53;;
34521;SDS011;25561;48.888;8.736;2022-12-08T14:55:45;12.40;;;6.60;;
34521;SDS011;25561;48.888;8.736;2022-12-08T14:58:49;13.93;;;7.15;;
34521;SDS011;25561;48.888;8.736;2022-12-08T15:05:25;15.85;;;7.13;;
34521;SDS011;25561;48.888;8.736;2022-12-08T15:08:30;13.93;;;7.55;;
34521;SDS011;25561;48.888;8.736;2022-12-08T15:11:34;15.90;;;8.15;;
34521;SDS011;25561;48.888;8.736;2022-12-08T15:14:36;15.38;;;7.50;;
34521;SDS011;25561;48.888;8.736;2022-12-08T15:20:47;24.10;;;8.05;;
34521;SDS011;25561;48.888;8.736;2022-12-08T15:23:52;15.30;;;7.93;;
34521;SDS011;25561;48.888;8.736;2022-12-08T15:26:54;15.90;;;7.90;;
34521;SDS011;25561;48.888;8.736;2022-12-08T15:29:56;26.63;;;9.05;;
34521;SDS011;25561;48.888;8.736;2022-12-08T15:32:58;22.20;;;9.55;;
34521;SDS011;25561;48.888;8.736;2022-12-08T15:36:00;19.35;;;8.35;;
34521;SDS011;25561;48.888;8.736;2022-12-08T15:39:01;21.90;;;9.30;;
34521;SDS011;25561;48.888;8.736;2022-12-08T15:42:08;17.33;;;8.68;;
34521;SDS011;25561;48.888;8.736;2022-12-08T15:45:12;20.20;;;10.13;;
34521;SDS011;25561;48.888;8.736;2022-12-08T15:48:23;19.95;;;10.55;;
34521;SDS011;25561;48.888;8.736;2022-12-08T15:51:27;31.05;;;13.10;;
34521;SDS011;25561;48.888;8.736;2022-12-08T15:54:31;19.23;;;10.15;;
34521;SDS011;25561;48.888;8.736;2022-12-08T15:57:32;20.83;;;10.82;;
34521;SDS011;25561;48.888;8.736;2022-12-08T16:00:54;25.50;;;9.93;;
34521;SDS011;25561;48.888;8.736;2022-12-08T16:03:57;23.90;;;10.77;;
34521;SDS011;25561;48.888;8.736;2022-12-08T16:07:22;24.40;;;10.32;;
34521;SDS011;25561;48.888;8.736;2022-12-08T16:10:27;29.20;;;12.63;;
34521;SDS011;25561;48.888;8.736;2022-12-08T16:13:48;20.63;;;10.35;;
34521;SDS011;25561;48.888;8.736;2022-12-08T16:17:18;24.50;;;10.15;;
34521;SDS011;25561;48.888;8.736;2022-12-08T16:20:21;21.05;;;10.57;;
34521;SDS011;25561;48.888;8.736;2022-12-08T16:23:43;21.77;;;10.05;;
34521;SDS011;25561;48.888;8.736;2022-12-08T16:26:45;20.33;;;10.52;;
34521;SDS011;25561;48.888;8.736;2022-12-08T16:30:11;22.63;;;10.57;;
34521;SDS011;25561;48.888;8.736;2022-12-08T16:33:15;21.35;;;10.93;;
34521;SDS011;25561;48.888;8.736;2022-12-08T16:36:16;18.63;;;10.65;;
34521;SDS011;25561;48.888;8.736;2022-12-08T16:39:18;19.55;;;9.77;;
34521;SDS011;25561;48.888;8.736;2022-12-08T16:42:21;22.48;;;9.77;;
34521;SDS011;25561;48.888;8.736;2022-12-08T16:45:40;22.70;;;9.65;;
34521;SDS011;25561;48.888;8.736;2022-12-08T16:51:47;23.98;;;10.43;;
34521;SDS011;25561;48.888;8.736;2022-12-08T16:54:48;25.75;;;10.43;;
34521;SDS011;25561;48.888;8.736;2022-12-08T16:57:50;20.88;;;9.48;;
